createdAt,value
2018-05-12T00:00:02.062Z,11.04
2018-05-12T00:01:10.134Z,11.00
2018-05-12T00:02:18.181Z,11.04
2018-05-12T00:03:26.241Z,11.00
2018-05-12T00:04:34.315Z,11.02
2018-05-12T00:05:42.356Z,11.01
2018-05-12T00:06:50.429Z,10.95
2018-05-12T00:07:58.500Z,11.02
2018-05-12T00:09:06.548Z,10.98
2018-05-12T00:10:14.625Z,11.04
2018-05-12T00:11:22.702Z,11.05
2018-05-12T00:12:30.784Z,11.02
2018-05-12T00:13:38.795Z,11.10
2018-05-12T00:14:46.860Z,11.07
2018-05-12T00:15:54.946Z,11.00
2018-05-12T00:17:02.973Z,11.00
2018-05-12T00:18:11.056Z,11.08
2018-05-12T00:19:19.117Z,11.07
2018-05-12T00:20:27.170Z,11.07
2018-05-12T00:21:35.227Z,11.08
2018-05-12T00:22:43.305Z,11.01
2018-05-12T00:23:51.323Z,11.08
2018-05-12T00:24:59.411Z,11.00
2018-05-12T00:26:07.485Z,11.07
2018-05-12T00:27:15.546Z,11.07
2018-05-12T00:28:23.593Z,11.02
2018-05-12T00:29:31.649Z,10.97
2018-05-12T00:30:39.718Z,11.02
2018-05-12T00:31:47.773Z,11.01
2018-05-12T00:32:55.841Z,10.97
2018-05-12T00:34:03.896Z,10.97
2018-05-12T00:35:11.949Z,10.89
2018-05-12T00:36:20.023Z,10.84
2018-05-12T00:37:28.092Z,10.86
2018-05-12T00:38:36.161Z,10.82
2018-05-12T00:39:44.200Z,10.84
2018-05-12T00:40:52.273Z,10.79
2018-05-12T00:42:00.351Z,10.77
2018-05-12T00:43:08.412Z,10.79
2018-05-12T00:44:16.438Z,10.75
2018-05-12T00:45:24.520Z,10.80
2018-05-12T00:46:32.576Z,10.79
2018-05-12T00:47:40.655Z,10.77
2018-05-12T00:48:48.710Z,10.72
2018-05-12T00:49:56.769Z,10.71
2018-05-12T00:51:04.821Z,10.68
2018-05-12T00:52:12.867Z,10.69
2018-05-12T00:53:20.946Z,10.65
2018-05-12T00:54:29.011Z,10.69
2018-05-12T00:55:37.059Z,10.67
2018-05-12T00:56:45.980Z,10.67
2018-05-12T00:57:53.189Z,10.61
2018-05-12T00:59:01.239Z,10.64
2018-05-12T01:00:09.331Z,10.65
2018-05-12T01:01:17.366Z,10.68
2018-05-12T01:02:25.443Z,10.64
2018-05-12T01:03:33.488Z,10.68
2018-05-12T01:04:41.543Z,10.75
2018-05-12T01:05:49.616Z,10.58
2018-05-12T01:06:57.675Z,10.69
2018-05-12T01:08:05.791Z,10.64
2018-05-12T01:09:13.802Z,10.72
2018-05-12T01:10:21.840Z,10.65
2018-05-12T01:11:29.935Z,10.71
2018-05-12T01:12:37.971Z,10.69
2018-05-12T01:13:46.038Z,10.67
2018-05-12T01:14:54.111Z,10.69
2018-05-12T01:16:02.161Z,10.65
2018-05-12T01:17:10.236Z,10.68
2018-05-12T01:18:18.309Z,10.67
2018-05-12T01:19:26.398Z,10.75
2018-05-12T01:20:34.424Z,10.62
2018-05-12T01:21:42.464Z,10.72
2018-05-12T01:22:50.536Z,10.67
2018-05-12T01:23:58.591Z,10.71
2018-05-12T01:25:06.656Z,10.67
2018-05-12T01:26:14.736Z,10.65
2018-05-12T01:27:22.785Z,10.61
2018-05-12T01:28:30.837Z,10.65
2018-05-12T01:29:38.884Z,10.69
2018-05-12T01:30:46.970Z,10.71
2018-05-12T01:31:55.031Z,10.64
2018-05-12T01:33:03.096Z,10.67
2018-05-12T01:34:11.148Z,10.61
2018-05-12T01:35:19.200Z,10.51
2018-05-12T01:36:27.287Z,10.58
2018-05-12T01:37:35.421Z,10.58
2018-05-12T01:38:43.395Z,10.58
2018-05-12T01:39:51.449Z,10.53
2018-05-12T01:40:59.509Z,10.43
2018-05-12T01:42:07.554Z,10.53
2018-05-12T01:43:15.641Z,10.43
2018-05-12T01:44:23.680Z,10.43
2018-05-12T01:45:31.742Z,10.53
2018-05-12T01:46:39.825Z,10.41
2018-05-12T01:47:47.878Z,10.46
2018-05-12T01:48:55.946Z,10.46
2018-05-12T01:50:04.049Z,10.48
2018-05-12T01:51:12.041Z,10.46
2018-05-12T01:52:20.131Z,10.42
2018-05-12T01:53:28.193Z,10.42
2018-05-12T01:54:36.254Z,10.45
2018-05-12T01:55:44.296Z,10.34
2018-05-12T01:56:52.365Z,10.43
2018-05-12T01:58:00.464Z,10.31
2018-05-12T01:59:08.504Z,10.25
2018-05-12T02:00:16.559Z,10.20
2018-05-12T02:01:24.598Z,10.27
2018-05-12T02:02:32.659Z,10.17
2018-05-12T02:03:40.727Z,10.18
2018-05-12T02:04:48.815Z,10.12
2018-05-12T02:05:56.856Z,10.07
2018-05-12T02:07:04.928Z,10.00
2018-05-12T02:08:12.954Z,9.99
2018-05-12T02:09:21.051Z,10.03
2018-05-12T02:10:29.175Z,9.91
2018-05-12T02:11:37.145Z,9.85
2018-05-12T02:12:45.187Z,9.92
2018-05-12T02:13:53.259Z,9.97
2018-05-12T02:15:01.328Z,10.02
2018-05-12T02:16:09.414Z,10.02
2018-05-12T02:17:17.456Z,9.94
2018-05-12T02:18:25.521Z,9.91
2018-05-12T02:19:33.559Z,9.84
2018-05-12T02:20:41.661Z,9.85
2018-05-12T02:21:49.701Z,9.76
2018-05-12T02:22:57.747Z,9.77
2018-05-12T02:24:05.823Z,9.74
2018-05-12T02:25:13.881Z,9.76
2018-05-12T02:26:21.943Z,9.70
2018-05-12T02:27:29.999Z,9.69
2018-05-12T02:28:38.041Z,9.72
2018-05-12T02:29:46.127Z,9.69
2018-05-12T02:30:54.194Z,9.64
2018-05-12T02:32:02.241Z,9.67
2018-05-12T02:33:10.329Z,9.58
2018-05-12T02:34:18.360Z,9.52
2018-05-12T02:35:26.438Z,9.51
2018-05-12T02:36:34.483Z,9.49
2018-05-12T02:37:42.540Z,9.52
2018-05-12T02:38:50.612Z,9.47
2018-05-12T02:39:58.669Z,9.47
2018-05-12T02:41:06.749Z,9.44
2018-05-12T02:42:14.787Z,9.34
2018-05-12T02:43:22.856Z,9.40
2018-05-12T02:44:30.917Z,9.39
2018-05-12T02:45:38.977Z,9.33
2018-05-12T02:46:47.043Z,9.33
2018-05-12T02:47:55.101Z,9.29
2018-05-12T02:49:03.158Z,9.33
2018-05-12T02:50:11.224Z,9.30
2018-05-12T02:51:19.296Z,9.33
2018-05-12T02:52:27.343Z,9.18
2018-05-12T02:53:35.406Z,9.33
2018-05-12T02:54:43.456Z,9.18
2018-05-12T02:55:51.503Z,9.24
2018-05-12T02:56:59.596Z,9.31
2018-05-12T02:58:07.639Z,9.31
2018-05-12T02:59:15.704Z,9.29
2018-05-12T03:00:23.749Z,9.24
2018-05-12T03:01:31.813Z,9.27
2018-05-12T03:02:39.886Z,9.34
2018-05-12T03:03:47.947Z,9.24
2018-05-12T03:04:56.000Z,9.29
2018-05-12T03:06:04.049Z,9.29
2018-05-12T03:07:12.108Z,9.29
2018-05-12T03:08:20.172Z,9.24
2018-05-12T03:09:28.243Z,9.33
2018-05-12T03:10:36.306Z,9.31
2018-05-12T03:11:44.374Z,9.31
2018-05-12T03:12:52.414Z,9.22
2018-05-12T03:14:00.474Z,9.27
2018-05-12T03:15:08.766Z,9.24
2018-05-12T03:16:16.603Z,9.24
2018-05-12T03:17:24.680Z,9.24
2018-05-12T03:18:32.736Z,9.29
2018-05-12T03:19:40.768Z,9.22
2018-05-12T03:20:48.845Z,9.22
2018-05-12T03:21:56.906Z,9.19
2018-05-12T03:23:04.974Z,9.21
2018-05-12T03:24:13.084Z,9.21
2018-05-12T03:25:21.088Z,9.26
2018-05-12T03:26:29.151Z,9.24
2018-05-12T03:27:37.216Z,9.22
2018-05-12T03:28:45.262Z,9.19
2018-05-12T03:29:53.309Z,9.18
2018-05-12T03:31:01.381Z,9.13
2018-05-12T03:32:09.452Z,9.13
2018-05-12T03:33:17.538Z,9.18
2018-05-12T03:34:25.576Z,9.13
2018-05-12T03:35:33.683Z,9.11
2018-05-12T03:36:41.789Z,9.12
2018-05-12T03:37:49.764Z,8.92
2018-05-12T03:38:57.786Z,9.09
2018-05-12T03:40:05.878Z,8.95
2018-05-12T03:41:13.940Z,9.00
2018-05-12T03:42:21.968Z,9.02
2018-05-12T03:43:30.069Z,9.00
2018-05-12T03:44:38.487Z,9.02
2018-05-12T03:45:46.170Z,9.12
2018-05-12T03:46:54.239Z,9.13
2018-05-12T03:48:02.281Z,8.93
2018-05-12T03:49:10.384Z,9.11
2018-05-12T03:50:18.407Z,9.08
2018-05-12T03:51:26.451Z,9.11
2018-05-12T03:52:34.530Z,9.09
2018-05-12T03:53:42.578Z,9.11
2018-05-12T03:54:51.223Z,9.05
2018-05-12T03:55:58.704Z,9.18
2018-05-12T03:57:06.766Z,9.12
2018-05-12T03:58:14.829Z,9.24
2018-05-12T03:59:22.892Z,9.30
2018-05-12T04:00:30.959Z,9.31
2018-05-12T04:01:39.016Z,9.39
2018-05-12T04:02:47.075Z,9.30
2018-05-12T04:03:55.144Z,9.45
2018-05-12T04:05:03.202Z,9.39
2018-05-12T04:06:11.840Z,9.47
2018-05-12T04:07:19.394Z,9.52
2018-05-12T04:08:27.981Z,9.55
2018-05-12T04:09:36.120Z,9.58
2018-05-12T04:11:51.520Z,9.70
2018-05-12T04:12:59.608Z,9.76
2018-05-12T04:14:07.660Z,9.77
2018-05-12T04:15:16.863Z,9.88
2018-05-12T04:16:24.388Z,9.88
2018-05-12T04:17:36.736Z,10.03
2018-05-12T04:18:39.917Z,10.09
2018-05-12T04:19:48.521Z,10.07
2018-05-12T04:20:56.139Z,10.28
2018-05-12T04:22:04.103Z,10.39
2018-05-12T04:23:12.155Z,10.31
2018-05-12T04:24:20.217Z,10.48
2018-05-12T04:25:28.269Z,10.55
2018-05-12T04:26:36.337Z,10.61
2018-05-12T04:27:44.399Z,10.64
2018-05-12T04:28:52.455Z,10.72
2018-05-12T04:30:00.523Z,10.71
2018-05-12T04:31:08.582Z,10.76
2018-05-12T04:32:16.639Z,10.84
2018-05-12T04:33:24.696Z,10.84
2018-05-12T04:34:32.770Z,10.98
2018-05-12T04:35:40.829Z,10.98
2018-05-12T04:36:49.563Z,11.07
2018-05-12T04:37:56.949Z,11.15
2018-05-12T04:39:05.008Z,11.18
2018-05-12T04:40:13.112Z,11.25
2018-05-12T04:41:21.148Z,11.37
2018-05-12T04:42:29.195Z,11.41
2018-05-12T04:43:37.236Z,11.45
2018-05-12T04:44:45.322Z,11.51
2018-05-12T04:45:53.619Z,11.45
2018-05-12T04:47:01.423Z,11.56
2018-05-12T04:48:09.506Z,11.60
2018-05-12T04:49:17.564Z,11.58
2018-05-12T04:50:25.612Z,11.53
2018-05-12T04:51:33.679Z,11.63
2018-05-12T04:52:41.727Z,11.51
2018-05-12T04:53:49.816Z,11.58
2018-05-12T04:54:57.872Z,11.60
2018-05-12T04:56:05.933Z,11.59
2018-05-12T04:57:13.991Z,11.70
2018-05-12T04:58:22.037Z,11.70
2018-05-12T04:59:30.124Z,11.73
2018-05-12T05:00:38.177Z,11.77
2018-05-12T05:01:46.233Z,11.78
2018-05-12T05:02:54.309Z,11.86
2018-05-12T05:04:02.355Z,11.85
2018-05-12T05:05:10.429Z,11.89
2018-05-12T05:06:18.481Z,11.93
2018-05-12T05:07:26.551Z,11.93
2018-05-12T05:08:34.761Z,11.85
2018-05-12T05:09:42.683Z,11.93
2018-05-12T05:10:50.748Z,11.93
2018-05-12T05:11:58.801Z,11.91
2018-05-12T05:13:06.879Z,11.89
2018-05-12T05:14:15.368Z,11.89
2018-05-12T05:15:23.088Z,11.86
2018-05-12T05:16:31.153Z,11.89
2018-05-12T05:17:39.397Z,11.86
2018-05-12T05:18:47.504Z,11.88
2018-05-12T05:19:55.233Z,11.91
2018-05-12T05:21:03.308Z,11.86
2018-05-12T05:22:11.348Z,11.97
2018-05-12T05:23:19.427Z,11.91
2018-05-12T05:24:27.485Z,11.95
2018-05-12T05:25:35.554Z,11.97
2018-05-12T05:26:43.616Z,11.95
2018-05-12T05:27:51.646Z,11.91
2018-05-12T05:28:59.731Z,12.02
2018-05-12T05:30:07.805Z,11.97
2018-05-12T05:31:15.875Z,12.05
2018-05-12T05:32:23.928Z,12.10
2018-05-12T05:33:31.960Z,12.10
2018-05-12T05:34:40.055Z,12.20
2018-05-12T05:35:48.114Z,12.18
2018-05-12T05:36:56.177Z,12.26
2018-05-12T05:38:04.247Z,12.23
2018-05-12T05:39:12.293Z,12.21
2018-05-12T05:40:20.359Z,12.21
2018-05-12T05:41:28.425Z,12.32
2018-05-12T05:42:36.483Z,12.33
2018-05-12T05:43:44.560Z,12.37
2018-05-12T05:44:52.603Z,12.45
2018-05-12T05:46:00.676Z,12.43
2018-05-12T05:47:08.747Z,12.57
2018-05-12T05:48:16.794Z,12.58
2018-05-12T05:49:24.896Z,12.66
2018-05-12T05:50:32.929Z,12.78
2018-05-12T05:51:40.996Z,12.80
2018-05-12T05:52:49.064Z,12.78
2018-05-12T05:53:57.120Z,12.93
2018-05-12T05:55:05.165Z,12.88
2018-05-12T05:56:13.251Z,12.95
2018-05-12T05:57:21.298Z,13.02
2018-05-12T05:58:29.454Z,13.05
2018-05-12T05:59:37.435Z,13.13
2018-05-12T06:00:45.482Z,13.16
2018-05-12T06:01:53.560Z,13.21
2018-05-12T06:03:01.609Z,13.33
2018-05-12T06:04:09.680Z,13.49
2018-05-12T06:05:17.753Z,13.58
2018-05-12T06:06:25.802Z,13.62
2018-05-12T06:07:33.860Z,13.65
2018-05-12T06:08:41.952Z,13.61
2018-05-12T06:09:50.007Z,13.73
2018-05-12T06:10:58.069Z,13.78
2018-05-12T06:12:06.128Z,13.87
2018-05-12T06:13:14.203Z,14.01
2018-05-12T06:14:22.240Z,14.04
2018-05-12T06:15:30.323Z,14.08
2018-05-12T06:16:38.407Z,14.15
2018-05-12T06:17:46.432Z,14.25
2018-05-12T06:18:54.510Z,14.28
2018-05-12T06:20:02.577Z,14.36
2018-05-12T06:21:10.631Z,14.30
2018-05-12T06:22:18.778Z,14.38
2018-05-12T06:23:26.780Z,14.43
2018-05-12T06:24:34.834Z,14.41
2018-05-12T06:25:42.881Z,14.51
2018-05-12T06:26:50.949Z,14.53
2018-05-12T06:27:59.019Z,14.61
2018-05-12T06:29:07.076Z,14.52
2018-05-12T06:30:15.172Z,14.73
2018-05-12T06:31:23.218Z,14.78
2018-05-12T06:32:31.277Z,14.79
2018-05-12T06:33:39.335Z,14.86
2018-05-12T06:34:47.423Z,14.89
2018-05-12T06:35:55.545Z,14.99
2018-05-12T06:37:03.524Z,15.02
2018-05-12T06:38:11.570Z,15.11
2018-05-12T06:39:19.666Z,15.18
2018-05-12T06:40:27.721Z,15.23
2018-05-12T06:41:36.534Z,15.18
2018-05-12T06:42:44.668Z,15.26
2018-05-12T06:43:51.894Z,15.33
2018-05-12T06:44:59.996Z,15.52
2018-05-12T06:46:08.043Z,15.52
2018-05-12T06:47:16.113Z,15.75
2018-05-12T06:48:24.180Z,15.81
2018-05-12T06:49:32.210Z,15.88
2018-05-12T06:50:40.303Z,15.99
2018-05-12T06:51:48.375Z,16.10
2018-05-12T06:52:56.439Z,16.08
2018-05-12T06:54:04.500Z,16.26
2018-05-12T06:55:12.565Z,16.43
2018-05-12T06:56:20.629Z,16.40
2018-05-12T06:57:28.701Z,16.54
2018-05-12T06:58:36.819Z,16.64
2018-05-12T06:59:44.826Z,16.69
2018-05-12T07:00:53.140Z,16.73
2018-05-12T07:02:00.964Z,16.77
2018-05-12T07:03:09.022Z,16.84
2018-05-12T07:04:17.106Z,16.87
2018-05-12T07:05:25.153Z,16.91
2018-05-12T07:06:33.225Z,16.73
2018-05-12T07:07:41.260Z,16.77
2018-05-12T07:08:49.352Z,16.77
2018-05-12T07:09:57.419Z,16.94
2018-05-12T07:11:06.705Z,16.98
2018-05-12T07:12:13.564Z,16.95
2018-05-12T07:13:21.609Z,17.13
2018-05-12T07:14:29.671Z,17.38
2018-05-12T07:15:38.303Z,17.72
2018-05-12T07:16:45.821Z,18.02
2018-05-12T07:17:54.517Z,18.28
2018-05-12T07:19:01.930Z,18.79
2018-05-12T07:20:10.018Z,18.81
2018-05-12T07:21:18.082Z,18.83
2018-05-12T07:22:26.138Z,18.94
2018-05-12T07:23:34.501Z,19.09
2018-05-12T07:24:42.276Z,19.26
2018-05-12T07:25:50.351Z,19.44
2018-05-12T07:26:58.421Z,19.32
2018-05-12T07:28:06.484Z,19.48
2018-05-12T07:29:14.559Z,19.99
2018-05-12T07:30:22.638Z,20.46
2018-05-12T07:31:30.690Z,20.70
2018-05-12T07:32:38.763Z,21.00
2018-05-12T07:33:46.834Z,21.20
2018-05-12T07:34:54.904Z,21.62
2018-05-12T07:36:02.977Z,21.89
2018-05-12T07:37:11.045Z,21.94
2018-05-12T07:38:19.120Z,21.59
2018-05-12T07:39:27.197Z,21.32
2018-05-12T07:40:35.269Z,21.03
2018-05-12T07:41:43.346Z,21.25
2018-05-12T07:42:51.399Z,21.59
2018-05-12T07:43:59.490Z,21.81
2018-05-12T07:45:07.572Z,21.63
2018-05-12T07:46:15.634Z,21.62
2018-05-12T07:47:23.708Z,21.29
2018-05-12T07:48:31.763Z,21.13
2018-05-12T07:49:39.870Z,21.23
2018-05-12T07:50:47.928Z,21.77
2018-05-12T07:51:56.001Z,22.36
2018-05-12T07:53:04.070Z,22.74
2018-05-12T07:54:12.131Z,23.11
2018-05-12T07:55:20.233Z,23.48
2018-05-12T07:56:28.298Z,23.55
2018-05-12T07:57:36.366Z,23.66
2018-05-12T07:58:44.446Z,23.77
2018-05-12T07:59:52.518Z,23.89
2018-05-12T08:01:00.585Z,24.37
2018-05-12T08:02:08.661Z,24.50
2018-05-12T08:03:16.738Z,24.92
2018-05-12T08:04:24.817Z,25.31
2018-05-12T08:05:32.890Z,25.36
2018-05-12T08:06:40.965Z,25.06
2018-05-12T08:07:49.042Z,25.03
2018-05-12T08:08:57.121Z,24.94
2018-05-12T08:10:05.195Z,25.41
2018-05-12T08:11:13.281Z,25.59
2018-05-12T08:12:21.330Z,25.59
2018-05-12T08:13:29.435Z,25.86
2018-05-12T08:14:37.507Z,25.85
2018-05-12T08:15:45.593Z,26.16
2018-05-12T08:16:53.668Z,26.45
2018-05-12T08:18:01.722Z,26.45
2018-05-12T08:19:09.824Z,26.68
2018-05-12T08:20:17.898Z,26.49
2018-05-12T08:21:25.983Z,26.71
2018-05-12T08:22:34.061Z,26.76
2018-05-12T08:23:42.134Z,26.79
2018-05-12T08:24:50.231Z,26.18
2018-05-12T08:25:58.323Z,26.15
2018-05-12T08:27:06.389Z,26.36
2018-05-12T08:28:14.477Z,26.52
2018-05-12T08:29:22.589Z,26.16
2018-05-12T08:30:30.638Z,26.37
2018-05-12T08:31:38.724Z,26.41
2018-05-12T08:32:46.802Z,26.52
2018-05-12T08:33:54.879Z,26.45
2018-05-12T08:35:02.962Z,26.24
2018-05-12T08:36:11.051Z,25.96
2018-05-12T08:37:19.116Z,25.74
2018-05-12T08:38:27.212Z,25.61
2018-05-12T08:39:35.279Z,25.85
2018-05-12T08:40:43.361Z,25.83
2018-05-12T08:41:51.431Z,25.92
2018-05-12T08:42:59.528Z,25.78
2018-05-12T08:44:07.611Z,25.67
2018-05-12T08:45:15.693Z,25.71
2018-05-12T08:46:23.772Z,25.86
2018-05-12T08:47:31.835Z,26.18
2018-05-12T08:48:39.933Z,26.24
2018-05-12T08:49:48.040Z,26.16
2018-05-12T08:50:56.101Z,26.23
2018-05-12T08:52:04.190Z,26.53
2018-05-12T08:53:12.248Z,26.24
2018-05-12T08:54:20.354Z,26.34
2018-05-12T08:55:28.428Z,26.26
2018-05-12T08:56:36.504Z,26.07
2018-05-12T08:57:44.582Z,26.11
2018-05-12T08:58:52.680Z,26.04
2018-05-12T09:00:00.761Z,25.37
2018-05-12T09:01:08.840Z,25.68
2018-05-12T09:02:16.914Z,25.29
2018-05-12T09:03:25.034Z,25.48
2018-05-12T09:04:33.094Z,25.58
2018-05-12T09:05:41.174Z,25.58
2018-05-12T09:06:49.232Z,25.43
2018-05-12T09:07:57.366Z,25.56
2018-05-12T09:09:05.403Z,25.18
2018-05-12T09:10:13.488Z,24.96
2018-05-12T09:11:22.061Z,24.77
2018-05-12T09:12:29.653Z,24.74
2018-05-12T09:13:37.725Z,24.59
2018-05-12T09:14:45.796Z,24.59
2018-05-12T09:15:53.889Z,24.00
2018-05-12T09:17:01.942Z,23.96
2018-05-12T09:18:10.052Z,23.89
2018-05-12T09:19:18.194Z,23.62
2018-05-12T09:20:26.199Z,23.63
2018-05-12T09:21:34.272Z,23.17
2018-05-12T09:22:42.343Z,22.76
2018-05-12T09:23:50.426Z,22.68
2018-05-12T09:24:58.502Z,22.76
2018-05-12T09:26:06.570Z,22.86
2018-05-12T09:27:14.646Z,22.93
2018-05-12T09:28:22.731Z,22.96
2018-05-12T09:29:30.815Z,23.11
2018-05-12T09:30:38.873Z,23.21
2018-05-12T09:31:47.007Z,23.23
2018-05-12T09:32:55.026Z,23.20
2018-05-12T09:34:03.092Z,23.08
2018-05-12T09:35:11.168Z,23.10
2018-05-12T09:36:19.235Z,23.16
2018-05-12T09:37:27.328Z,23.20
2018-05-12T09:38:35.389Z,23.14
2018-05-12T09:39:43.459Z,23.16
2018-05-12T09:40:51.517Z,23.29
2018-05-12T09:41:59.596Z,23.33
2018-05-12T09:43:07.664Z,23.37
2018-05-12T09:44:15.760Z,23.40
2018-05-12T09:45:23.812Z,23.48
2018-05-12T09:46:31.875Z,23.59
2018-05-12T09:47:39.973Z,23.63
2018-05-12T09:48:48.049Z,23.69
2018-05-12T09:49:56.114Z,23.70
2018-05-12T09:51:04.184Z,23.73
2018-05-12T09:52:12.249Z,23.74
2018-05-12T09:53:20.335Z,23.67
2018-05-12T09:54:28.399Z,23.66
2018-05-12T09:55:36.486Z,23.70
2018-05-12T09:56:44.555Z,23.77
2018-05-12T09:57:52.612Z,23.74
2018-05-12T09:59:00.681Z,23.82
2018-05-12T10:00:08.764Z,23.86
2018-05-12T10:01:16.829Z,23.86
2018-05-12T10:02:24.903Z,23.94
2018-05-12T10:03:33.068Z,24.01
2018-05-12T10:04:41.036Z,24.06
2018-05-12T10:05:49.203Z,24.10
2018-05-12T10:06:57.196Z,24.31
2018-05-12T10:08:05.269Z,24.22
2018-05-12T10:09:13.323Z,23.99
2018-05-12T10:10:21.388Z,23.99
2018-05-12T10:11:29.480Z,24.04
2018-05-12T10:12:37.546Z,23.76
2018-05-12T10:13:45.623Z,23.76
2018-05-12T10:14:53.705Z,23.89
2018-05-12T10:16:01.754Z,24.04
2018-05-12T10:17:09.836Z,23.73
2018-05-12T10:18:17.940Z,22.95
2018-05-12T10:19:25.979Z,22.98
2018-05-12T10:20:34.052Z,23.18
2018-05-12T10:21:42.107Z,22.96
2018-05-12T10:22:50.193Z,22.88
2018-05-12T10:23:58.263Z,23.13
2018-05-12T10:25:06.328Z,23.33
2018-05-12T10:26:14.514Z,23.48
2018-05-12T10:27:22.546Z,23.55
2018-05-12T10:28:30.540Z,23.64
2018-05-12T10:29:38.614Z,23.81
2018-05-12T10:30:46.695Z,23.92
2018-05-12T10:31:54.769Z,24.16
2018-05-12T10:33:02.833Z,24.26
2018-05-12T10:34:10.898Z,24.41
2018-05-12T10:35:18.975Z,24.48
2018-05-12T10:36:27.036Z,24.61
2018-05-12T10:37:35.115Z,24.56
2018-05-12T10:38:43.177Z,24.24
2018-05-12T10:39:51.260Z,24.22
2018-05-12T10:40:59.330Z,24.38
2018-05-12T10:42:07.440Z,24.46
2018-05-12T10:43:15.472Z,24.41
2018-05-12T10:44:23.535Z,24.36
2018-05-12T10:45:31.584Z,24.50
2018-05-12T10:46:39.672Z,24.59
2018-05-12T10:47:47.755Z,24.65
2018-05-12T10:48:55.829Z,24.51
2018-05-12T10:50:03.903Z,24.75
2018-05-12T10:51:11.947Z,24.59
2018-05-12T10:52:20.048Z,24.58
2018-05-12T10:53:28.114Z,24.68
2018-05-12T10:54:36.187Z,24.69
2018-05-12T10:55:44.248Z,24.69
2018-05-12T10:56:52.317Z,24.40
2018-05-12T10:58:00.403Z,24.48
2018-05-12T10:59:08.481Z,24.22
2018-05-12T11:00:16.541Z,24.25
2018-05-12T11:01:24.613Z,24.07
2018-05-12T11:02:32.689Z,24.28
2018-05-12T11:03:40.835Z,24.32
2018-05-12T11:04:48.814Z,24.24
2018-05-12T11:05:56.900Z,24.32
2018-05-12T11:07:04.965Z,24.55
2018-05-12T11:08:13.039Z,24.62
2018-05-12T11:09:21.127Z,24.58
2018-05-12T11:10:29.173Z,24.68
2018-05-12T11:11:37.250Z,24.75
2018-05-12T11:12:45.313Z,24.82
2018-05-12T11:13:53.392Z,24.50
2018-05-12T11:15:01.466Z,24.31
2018-05-12T11:16:09.552Z,24.55
2018-05-12T11:17:17.596Z,24.62
2018-05-12T11:18:25.680Z,24.71
2018-05-12T11:19:33.745Z,24.89
2018-05-12T11:20:41.798Z,24.79
2018-05-12T11:21:50.016Z,24.96
2018-05-12T11:22:57.962Z,24.66
2018-05-12T11:24:06.024Z,24.65
2018-05-12T11:25:14.115Z,24.11
2018-05-12T11:26:22.184Z,24.38
2018-05-12T11:27:30.241Z,24.56
2018-05-12T11:28:38.298Z,24.93
2018-05-12T11:29:46.384Z,24.96
2018-05-12T11:30:54.453Z,24.86
2018-05-12T11:32:02.543Z,24.97
2018-05-12T11:33:10.606Z,25.07
2018-05-12T11:34:18.665Z,25.07
2018-05-12T11:35:26.751Z,25.22
2018-05-12T11:36:34.822Z,25.40
2018-05-12T11:37:42.878Z,25.58
2018-05-12T11:38:51.057Z,25.71
2018-05-12T11:39:59.022Z,25.80
2018-05-12T11:41:07.100Z,25.74
2018-05-12T11:42:15.166Z,25.89
2018-05-12T11:43:23.245Z,25.88
2018-05-12T11:44:31.424Z,25.98
2018-05-12T11:45:39.385Z,25.95
2018-05-12T11:46:47.452Z,25.86
2018-05-12T11:47:55.525Z,25.77
2018-05-12T11:49:03.610Z,25.95
2018-05-12T11:50:12.088Z,25.95
2018-05-12T11:51:19.784Z,25.91
2018-05-12T11:52:27.828Z,25.73
2018-05-12T11:53:35.885Z,25.68
2018-05-12T11:54:43.960Z,25.58
2018-05-12T11:55:52.001Z,25.24
2018-05-12T11:57:00.100Z,24.94
2018-05-12T11:58:08.180Z,25.09
2018-05-12T11:59:16.245Z,25.30
2018-05-12T12:00:24.321Z,25.55
2018-05-12T12:01:32.376Z,25.73
2018-05-12T12:02:40.464Z,25.86
2018-05-12T12:03:48.598Z,25.92
2018-05-12T12:04:56.596Z,26.04
2018-05-12T12:06:04.675Z,26.24
2018-05-12T12:07:12.744Z,26.22
2018-05-12T12:08:20.815Z,26.13
2018-05-12T12:09:28.885Z,25.34
2018-05-12T12:10:36.960Z,25.11
2018-05-12T12:11:45.031Z,24.44
2018-05-12T12:12:53.105Z,24.11
2018-05-12T12:14:02.421Z,23.85
2018-05-12T12:15:09.245Z,23.92
2018-05-12T12:16:17.315Z,23.99
2018-05-12T12:17:25.391Z,24.21
2018-05-12T12:18:33.474Z,24.46
2018-05-12T12:19:41.523Z,24.58
2018-05-12T12:20:49.601Z,24.84
2018-05-12T12:21:57.687Z,24.88
2018-05-12T12:23:05.755Z,24.97
2018-05-12T12:24:13.820Z,25.12
2018-05-12T12:25:21.870Z,25.18
2018-05-12T12:26:29.977Z,24.89
2018-05-12T12:27:38.032Z,24.62
2018-05-12T12:28:46.111Z,24.58
2018-05-12T12:29:54.174Z,24.26
2018-05-12T12:31:02.245Z,24.38
2018-05-12T12:32:10.318Z,24.58
2018-05-12T12:33:18.397Z,24.63
2018-05-12T12:34:26.478Z,24.68
2018-05-12T12:35:34.531Z,24.85
2018-05-12T12:36:42.604Z,25.00
2018-05-12T12:37:50.678Z,24.78
2018-05-12T12:38:58.757Z,24.56
2018-05-12T12:40:06.808Z,24.61
2018-05-12T12:41:14.889Z,24.56
2018-05-12T12:42:22.949Z,24.74
2018-05-12T12:43:31.036Z,24.74
2018-05-12T12:44:39.102Z,24.81
2018-05-12T12:45:47.177Z,24.89
2018-05-12T12:46:55.266Z,24.93
2018-05-12T12:48:03.321Z,25.04
2018-05-12T12:49:11.366Z,25.19
2018-05-12T12:50:19.446Z,25.29
2018-05-12T12:51:27.527Z,25.29
2018-05-12T12:52:35.589Z,25.31
2018-05-12T12:53:43.659Z,25.44
2018-05-12T12:54:51.718Z,25.44
2018-05-12T12:55:59.800Z,25.55
2018-05-12T12:57:07.880Z,25.63
2018-05-12T12:58:15.970Z,25.54
2018-05-12T12:59:24.024Z,25.59
2018-05-12T13:00:32.080Z,25.62
2018-05-12T13:01:40.173Z,25.71
2018-05-12T13:02:48.221Z,25.77
2018-05-12T13:03:56.303Z,25.89
2018-05-12T13:05:04.413Z,25.89
2018-05-12T13:06:12.450Z,25.96
2018-05-12T13:07:20.510Z,26.01
2018-05-12T13:08:28.590Z,25.96
2018-05-12T13:09:36.663Z,25.78
2018-05-12T13:10:44.736Z,25.88
2018-05-12T13:11:52.797Z,25.71
2018-05-12T13:13:00.880Z,25.74
2018-05-12T13:14:08.956Z,25.67
2018-05-12T13:15:17.020Z,25.81
2018-05-12T13:16:25.086Z,25.93
2018-05-12T13:17:33.163Z,25.70
2018-05-12T13:18:41.216Z,25.58
2018-05-12T13:19:49.327Z,25.30
2018-05-12T13:20:57.369Z,25.22
2018-05-12T13:22:05.469Z,25.34
2018-05-12T13:23:13.517Z,25.39
2018-05-12T13:24:21.576Z,25.61
2018-05-12T13:25:29.658Z,25.96
2018-05-12T13:26:37.732Z,26.07
2018-05-12T13:27:45.804Z,26.13
2018-05-12T13:28:53.869Z,26.19
2018-05-12T13:30:01.948Z,25.99
2018-05-12T13:31:10.020Z,26.03
2018-05-12T13:32:18.099Z,26.04
2018-05-12T13:33:26.217Z,25.77
2018-05-12T13:34:34.225Z,25.71
2018-05-12T13:35:42.326Z,25.56
2018-05-12T13:36:50.380Z,25.49
2018-05-12T13:37:58.454Z,25.37
2018-05-12T13:39:06.511Z,25.25
2018-05-12T13:40:14.597Z,24.93
2018-05-12T13:41:22.657Z,24.97
2018-05-12T13:42:30.728Z,24.88
2018-05-12T13:43:38.799Z,25.09
2018-05-12T13:44:46.877Z,25.09
2018-05-12T13:45:54.943Z,25.16
2018-05-12T13:47:03.022Z,25.09
2018-05-12T13:48:11.091Z,25.12
2018-05-12T13:49:19.151Z,25.00
2018-05-12T13:50:27.244Z,24.96
2018-05-12T13:51:35.306Z,24.84
2018-05-12T13:52:43.375Z,24.77
2018-05-12T13:53:51.433Z,24.63
2018-05-12T13:54:59.506Z,24.59
2018-05-12T13:56:07.589Z,24.85
2018-05-12T13:57:15.665Z,24.93
2018-05-12T13:58:23.735Z,25.09
2018-05-12T13:59:31.777Z,25.25
2018-05-12T14:00:39.881Z,25.39
2018-05-12T14:01:47.961Z,25.56
2018-05-12T14:02:56.029Z,25.44
2018-05-12T14:04:04.085Z,25.59
2018-05-12T14:05:12.144Z,25.68
2018-05-12T14:06:20.230Z,26.03
2018-05-12T14:07:28.396Z,25.77
2018-05-12T14:08:36.381Z,25.44
2018-05-12T14:09:44.454Z,25.44
2018-05-12T14:10:52.514Z,25.39
2018-05-12T14:12:00.589Z,25.19
2018-05-12T14:13:08.667Z,25.26
2018-05-12T14:14:16.729Z,25.11
2018-05-12T14:15:24.815Z,25.15
2018-05-12T14:16:32.887Z,25.16
2018-05-12T14:17:40.996Z,25.15
2018-05-12T14:18:49.603Z,25.04
2018-05-12T14:19:57.106Z,25.07
2018-05-12T14:21:05.165Z,25.06
2018-05-12T14:22:13.239Z,25.15
2018-05-12T14:23:21.360Z,25.26
2018-05-12T14:24:29.369Z,24.94
2018-05-12T14:25:37.457Z,24.71
2018-05-12T14:26:45.541Z,24.61
2018-05-12T14:27:53.594Z,24.74
2018-05-12T14:29:01.651Z,24.79
2018-05-12T14:30:09.760Z,24.89
2018-05-12T14:31:17.800Z,24.99
2018-05-12T14:32:25.882Z,25.01
2018-05-12T14:33:33.945Z,25.14
2018-05-12T14:34:41.999Z,25.09
2018-05-12T14:35:50.094Z,25.15
2018-05-12T14:36:58.160Z,25.14
2018-05-12T14:38:06.255Z,25.18
2018-05-12T14:39:14.315Z,25.18
2018-05-12T14:40:22.369Z,25.21
2018-05-12T14:41:30.438Z,25.19